createdAt,value
2022-11-26T00:01:20.980Z,15.45
2022-11-26T00:03:49.408Z,15.02
2022-11-26T00:06:27.817Z,13.27
2022-11-26T00:08:54.624Z,12.10
2022-11-26T00:11:21.462Z,11.98
2022-11-26T00:13:48.277Z,9.48
2022-11-26T00:16:15.679Z,11.82
2022-11-26T00:18:43.023Z,8.48
2022-11-26T00:21:28.212Z,9.02
2022-11-26T00:23:55.306Z,12.07
2022-11-26T00:26:24.854Z,9.18
2022-11-26T00:28:59.998Z,7.82
2022-11-26T00:31:28.338Z,11.57
2022-11-26T00:33:55.442Z,8.38
2022-11-26T00:36:31.810Z,14.35
2022-11-26T00:39:11.937Z,10.10
2022-11-26T00:41:39.599Z,10.70
2022-11-26T00:44:23.559Z,11.10
2022-11-26T00:46:51.628Z,15.35
2022-11-26T00:49:18.898Z,20.35
2022-11-26T00:51:46.471Z,11.13
2022-11-26T00:54:17.445Z,14.38
2022-11-26T00:56:44.426Z,11.50
2022-11-26T00:59:15.812Z,15.60
2022-11-26T01:04:09.367Z,9.45
2022-11-26T01:06:41.123Z,12.50
2022-11-26T01:09:18.726Z,10.38
2022-11-26T01:11:49.771Z,9.23
2022-11-26T01:14:21.502Z,12.82
2022-11-26T01:16:49.095Z,8.88
2022-11-26T01:19:16.575Z,8.55
2022-11-26T01:21:43.404Z,10.77
2022-11-26T01:24:10.144Z,13.68
2022-11-26T01:26:42.914Z,13.18
2022-11-26T01:29:20.004Z,11.90
2022-11-26T01:31:46.998Z,12.40
2022-11-26T01:34:14.107Z,10.75
2022-11-26T01:36:42.299Z,14.07
2022-11-26T01:39:19.806Z,10.90
2022-11-26T01:42:21.102Z,9.85
2022-11-26T01:44:47.863Z,11.35
2022-11-26T01:47:40.809Z,10.88
2022-11-26T01:50:31.843Z,12.73
2022-11-26T01:53:12.271Z,12.27
2022-11-26T01:55:47.724Z,12.47
2022-11-26T01:58:22.747Z,16.02
2022-11-26T02:00:51.342Z,14.00
2022-11-26T02:03:19.652Z,14.63
2022-11-26T02:05:58.890Z,13.57
2022-11-26T02:08:28.423Z,11.63
2022-11-26T02:10:55.357Z,11.80
2022-11-26T02:13:23.094Z,17.40
2022-11-26T02:16:12.076Z,23.33
2022-11-26T02:18:43.676Z,15.93
2022-11-26T02:21:21.095Z,18.42
2022-11-26T02:24:12.811Z,15.45
2022-11-26T02:27:13.521Z,15.80
2022-11-26T02:30:12.752Z,18.35
2022-11-26T02:33:05.491Z,16.90
2022-11-26T02:35:56.309Z,17.63
2022-11-26T02:38:30.261Z,15.88
2022-11-26T02:40:57.331Z,17.52
2022-11-26T02:43:26.174Z,14.25
2022-11-26T02:45:59.616Z,16.67
2022-11-26T02:48:34.317Z,16.42
2022-11-26T02:51:14.514Z,15.82
2022-11-26T02:54:13.844Z,16.88
2022-11-26T02:56:49.945Z,12.77
2022-11-26T02:59:38.956Z,19.70
2022-11-26T03:02:58.735Z,20.38
2022-11-26T03:05:39.397Z,13.05
2022-11-26T03:08:38.814Z,12.60
2022-11-26T03:11:38.559Z,13.55
2022-11-26T03:14:05.350Z,20.80
2022-11-26T03:16:32.261Z,16.67
2022-11-26T03:18:59.040Z,15.55
2022-11-26T03:21:25.781Z,23.00
2022-11-26T03:23:52.619Z,19.55
2022-11-26T03:26:19.382Z,22.75
2022-11-26T03:28:46.175Z,13.27
2022-11-26T03:31:13.061Z,14.88
2022-11-26T03:33:39.801Z,10.43
2022-11-26T03:36:07.021Z,17.83
2022-11-26T03:38:33.748Z,21.58
2022-11-26T03:41:03.860Z,19.27
2022-11-26T03:43:30.653Z,14.15
2022-11-26T03:45:57.726Z,15.00
2022-11-26T03:48:24.520Z,13.10
2022-11-26T03:50:51.281Z,14.63
2022-11-26T03:53:18.001Z,14.20
2022-11-26T03:55:45.137Z,13.65
2022-11-26T03:58:11.850Z,15.55
2022-11-26T04:00:39.711Z,15.98
2022-11-26T04:03:06.483Z,16.40
2022-11-26T04:05:33.290Z,13.80
2022-11-26T04:08:00.135Z,9.10
2022-11-26T04:10:26.919Z,13.55
2022-11-26T04:12:53.698Z,16.38
2022-11-26T04:15:20.445Z,14.20
2022-11-26T04:17:47.206Z,11.40
2022-11-26T04:20:14.237Z,11.40
2022-11-26T04:22:40.999Z,17.38
2022-11-26T04:25:08.353Z,12.50
2022-11-26T04:27:35.158Z,13.43
2022-11-26T04:30:02.125Z,18.25
2022-11-26T04:32:28.873Z,16.33
2022-11-26T04:34:55.658Z,12.82
2022-11-26T04:37:22.377Z,17.58
2022-11-26T04:39:49.143Z,13.38
2022-11-26T04:42:15.988Z,17.60
2022-11-26T04:44:42.973Z,16.30
2022-11-26T04:47:09.775Z,10.93
2022-11-26T04:49:36.539Z,13.45
2022-11-26T04:52:03.366Z,11.80
2022-11-26T04:54:30.204Z,9.02
2022-11-26T04:56:57.070Z,9.00
2022-11-26T04:59:23.881Z,10.80
2022-11-26T05:01:51.000Z,10.63
2022-11-26T05:04:17.737Z,7.22
2022-11-26T05:06:44.458Z,10.73
2022-11-26T05:09:11.179Z,11.85
2022-11-26T05:11:37.990Z,9.02
2022-11-26T05:14:04.724Z,10.30
2022-11-26T05:16:31.562Z,10.55
2022-11-26T05:18:58.318Z,14.27
2022-11-26T05:21:25.047Z,11.88
2022-11-26T05:23:51.791Z,11.38
2022-11-26T05:26:18.550Z,13.73
2022-11-26T05:28:45.303Z,12.65
2022-11-26T05:31:12.212Z,8.63
2022-11-26T05:33:38.989Z,11.68
2022-11-26T05:36:06.022Z,11.07
2022-11-26T05:38:32.765Z,17.42
2022-11-26T05:40:59.501Z,10.38
2022-11-26T05:43:27.322Z,13.32
2022-11-26T05:45:54.165Z,10.13
2022-11-26T05:48:20.937Z,9.20
2022-11-26T05:50:51.543Z,13.27
2022-11-26T05:53:21.135Z,12.10
2022-11-26T05:55:47.866Z,10.95
2022-11-26T05:58:14.580Z,11.07
2022-11-26T06:00:41.315Z,11.18
2022-11-26T06:03:08.206Z,8.25
2022-11-26T06:05:35.286Z,8.80
2022-11-26T06:08:02.417Z,11.90
2022-11-26T06:10:29.190Z,9.75
2022-11-26T06:12:55.943Z,10.38
2022-11-26T06:15:22.685Z,7.05
2022-11-26T06:17:49.407Z,6.50
2022-11-26T06:20:16.392Z,11.00
2022-11-26T06:22:44.152Z,9.73
2022-11-26T06:25:13.943Z,6.95
2022-11-26T06:27:41.880Z,6.95
2022-11-26T06:30:11.457Z,8.70
2022-11-26T06:32:38.387Z,9.50
2022-11-26T06:35:06.176Z,8.50
2022-11-26T06:37:33.365Z,13.07
2022-11-26T06:40:00.308Z,14.18
2022-11-26T06:42:27.202Z,13.23
2022-11-26T06:44:58.342Z,16.48
2022-11-26T06:47:26.863Z,12.32
2022-11-26T06:49:53.674Z,11.55
2022-11-26T06:52:20.397Z,8.77
2022-11-26T06:54:47.154Z,10.77
2022-11-26T06:57:13.921Z,15.48
2022-11-26T06:59:40.767Z,15.13
2022-11-26T07:02:09.156Z,12.50
2022-11-26T07:04:35.994Z,14.52
2022-11-26T07:07:02.862Z,21.33
2022-11-26T07:09:29.605Z,41.25
2022-11-26T07:11:56.348Z,29.25
2022-11-26T07:14:23.080Z,20.92
2022-11-26T07:16:49.810Z,33.95
2022-11-26T07:19:16.574Z,18.08
2022-11-26T07:21:43.393Z,22.25
2022-11-26T07:24:10.373Z,21.08
2022-11-26T07:26:37.096Z,22.08
2022-11-26T07:29:03.955Z,31.77
2022-11-26T07:31:30.763Z,29.17
2022-11-26T07:33:57.987Z,58.28
2022-11-26T07:36:30.177Z,22.90
2022-11-26T07:39:01.896Z,30.10
2022-11-26T07:41:30.350Z,168.60
2022-11-26T07:43:57.489Z,48.35
2022-11-26T07:46:25.803Z,68.07
2022-11-26T07:48:52.695Z,100.20
2022-11-26T07:51:32.220Z,49.05
2022-11-26T07:54:04.680Z,66.22
2022-11-26T07:56:31.786Z,89.00
2022-11-26T07:58:58.584Z,121.18
2022-11-26T08:01:29.457Z,151.25
2022-11-26T08:03:58.620Z,136.18
2022-11-26T08:06:29.224Z,149.45
2022-11-26T08:08:56.109Z,89.82
2022-11-26T08:11:27.031Z,60.58
2022-11-26T08:14:00.449Z,274.95
2022-11-26T08:16:29.291Z,18.42
2022-11-26T08:19:02.284Z,35.25
2022-11-26T08:21:29.253Z,77.13
2022-11-26T08:23:56.533Z,24.35
2022-11-26T08:26:33.592Z,130.65
2022-11-26T08:29:03.226Z,220.30
2022-11-26T08:31:30.974Z,37.90
2022-11-26T08:33:59.733Z,23.50
2022-11-26T08:36:28.256Z,93.43
2022-11-26T08:38:55.872Z,36.70
2022-11-26T08:41:22.865Z,12.93
2022-11-26T08:44:06.977Z,36.63
2022-11-26T08:46:38.693Z,99.65
2022-11-26T08:49:07.530Z,48.30
2022-11-26T08:51:34.752Z,73.63
2022-11-26T08:54:02.266Z,251.40
2022-11-26T08:56:29.428Z,90.40
2022-11-26T08:58:56.369Z,465.73
2022-11-26T09:01:30.117Z,49.78
2022-11-26T09:03:59.816Z,68.68
2022-11-26T09:06:29.996Z,117.97
2022-11-26T09:09:17.166Z,101.57
2022-11-26T09:12:04.397Z,162.75
2022-11-26T09:14:38.343Z,150.65
2022-11-26T09:17:07.565Z,11.00
2022-11-26T09:19:34.347Z,101.22
2022-11-26T09:22:01.308Z,38.08
2022-11-26T09:24:28.135Z,52.15
2022-11-26T09:26:54.849Z,35.03
2022-11-26T09:29:23.617Z,6.43
2022-11-26T09:34:38.821Z,9.57
2022-11-26T09:37:06.039Z,8.65
2022-11-26T09:39:33.074Z,17.42
2022-11-26T09:42:06.748Z,14.25
2022-11-26T09:45:09.350Z,11.18
2022-11-26T09:47:42.969Z,11.52
2022-11-26T09:50:15.677Z,11.20
2022-11-26T09:52:57.938Z,8.88
2022-11-26T09:55:34.786Z,15.88
2022-11-26T09:58:27.730Z,8.88
2022-11-26T10:00:59.081Z,10.18
2022-11-26T10:06:31.026Z,12.45
2022-11-26T10:09:20.875Z,9.75
2022-11-26T10:12:06.351Z,6.93
2022-11-26T10:14:47.919Z,10.80
2022-11-26T10:17:39.487Z,10.57
2022-11-26T10:23:17.642Z,9.85
2022-11-26T10:25:51.914Z,10.55
2022-11-26T10:28:41.619Z,7.72
2022-11-26T10:31:26.000Z,11.13
2022-11-26T10:34:03.673Z,12.27
2022-11-26T10:36:39.240Z,8.90
2022-11-26T10:39:07.405Z,9.13
2022-11-26T10:41:36.261Z,20.98
2022-11-26T10:44:40.496Z,9.75
2022-11-26T10:47:31.713Z,9.50
2022-11-26T10:50:19.156Z,9.90
2022-11-26T10:52:54.194Z,10.38
2022-11-26T10:55:30.810Z,11.60
2022-11-26T10:58:06.207Z,14.18
2022-11-26T11:00:39.953Z,14.15
2022-11-26T11:03:51.784Z,11.05
2022-11-26T11:06:19.706Z,10.05
2022-11-26T11:08:53.797Z,12.60
2022-11-26T11:11:28.248Z,10.98
2022-11-26T11:13:56.036Z,12.30
2022-11-26T11:16:46.008Z,9.25
2022-11-26T11:19:26.200Z,13.93
2022-11-26T11:21:53.075Z,9.23
2022-11-26T11:24:27.235Z,13.40
2022-11-26T11:27:00.143Z,15.77
2022-11-26T11:29:32.941Z,13.82
2022-11-26T11:32:04.225Z,12.88
2022-11-26T11:34:39.294Z,11.15
2022-11-26T11:37:21.167Z,11.07
2022-11-26T11:40:05.745Z,9.18
2022-11-26T11:42:32.926Z,10.38
2022-11-26T11:45:01.095Z,10.80
2022-11-26T11:47:44.906Z,8.38
2022-11-26T11:50:36.283Z,9.10
2022-11-26T11:53:38.225Z,12.85
2022-11-26T11:56:34.113Z,9.40
2022-11-26T12:00:13.643Z,10.32
2022-11-26T12:02:56.022Z,11.30
2022-11-26T12:06:09.550Z,9.30
2022-11-26T12:08:41.497Z,10.15
2022-11-26T12:11:33.746Z,13.35
2022-11-26T12:14:23.985Z,8.98
2022-11-26T12:16:58.025Z,8.23
2022-11-26T12:19:48.529Z,10.95
2022-11-26T12:22:34.239Z,7.10
2022-11-26T12:25:35.329Z,5.95
2022-11-26T12:28:14.125Z,4.80
2022-11-26T12:30:48.683Z,9.88
2022-11-26T12:33:41.968Z,7.38
2022-11-26T12:37:12.946Z,5.00
2022-11-26T12:39:53.927Z,8.27
2022-11-26T12:42:45.517Z,8.77
2022-11-26T12:45:59.255Z,6.05
2022-11-26T12:49:03.742Z,10.80
2022-11-26T12:51:36.617Z,7.28
2022-11-26T12:54:36.862Z,5.30
2022-11-26T12:57:43.486Z,7.82
2022-11-26T13:00:26.215Z,8.57
2022-11-26T13:02:54.350Z,10.73
2022-11-26T13:05:31.546Z,8.63
2022-11-26T13:08:22.283Z,14.88
2022-11-26T13:11:30.701Z,12.30
2022-11-26T13:14:19.791Z,12.85
2022-11-26T13:17:01.655Z,10.85
2022-11-26T13:19:38.289Z,13.77
2022-11-26T13:22:47.852Z,13.70
2022-11-26T13:25:53.799Z,12.40
2022-11-26T13:28:47.553Z,10.93
2022-11-26T13:32:00.191Z,11.25
2022-11-26T13:34:50.803Z,13.73
2022-11-26T13:37:47.470Z,13.43
2022-11-26T13:40:57.297Z,15.68
2022-11-26T13:43:40.074Z,12.93
2022-11-26T13:46:23.836Z,16.35
2022-11-26T13:49:03.918Z,23.27
2022-11-26T13:51:43.162Z,33.75
2022-11-26T13:54:17.664Z,28.90
2022-11-26T13:56:47.041Z,35.25
2022-11-26T13:59:28.624Z,25.30
2022-11-26T14:01:56.553Z,20.48
2022-11-26T14:04:23.250Z,22.55
2022-11-26T14:07:05.202Z,23.10
2022-11-26T14:09:46.581Z,21.50
2022-11-26T14:14:43.616Z,22.00
2022-11-26T14:17:29.944Z,20.23
2022-11-26T14:20:00.042Z,22.52
2022-11-26T14:22:35.204Z,18.85
2022-11-26T14:25:09.679Z,21.80
2022-11-26T14:27:52.366Z,17.25
2022-11-26T14:30:27.395Z,16.48
2022-11-26T14:33:25.111Z,16.95
2022-11-26T14:35:56.474Z,18.38
2022-11-26T14:40:58.945Z,16.48
2022-11-26T14:43:26.073Z,16.20
2022-11-26T14:46:17.404Z,16.90
2022-11-26T14:51:23.623Z,17.58
2022-11-26T14:53:51.449Z,17.85
2022-11-26T14:56:19.529Z,17.90
2022-11-26T14:58:51.921Z,21.77
2022-11-26T15:01:20.155Z,18.88
2022-11-26T15:04:05.570Z,21.63
2022-11-26T15:06:42.854Z,21.27
2022-11-26T15:09:24.367Z,86.15
2022-11-26T15:12:10.197Z,47.78
2022-11-26T15:14:56.115Z,29.65
2022-11-26T15:17:36.515Z,46.85
2022-11-26T15:20:31.908Z,182.75
2022-11-26T15:23:01.858Z,173.50
2022-11-26T15:25:33.891Z,203.23
2022-11-26T15:28:14.732Z,486.02
2022-11-26T15:30:41.546Z,318.73
2022-11-26T15:33:08.229Z,286.80
2022-11-26T15:35:36.690Z,202.88
2022-11-26T15:38:18.550Z,185.98
2022-11-26T15:41:08.210Z,200.25
2022-11-26T15:43:46.154Z,145.82
2022-11-26T15:46:22.386Z,148.55
2022-11-26T15:48:57.042Z,106.95
2022-11-26T15:51:36.074Z,205.50
2022-11-26T15:54:19.258Z,177.48
2022-11-26T15:57:38.225Z,77.00
2022-11-26T16:00:40.809Z,80.38
2022-11-26T16:04:03.498Z,73.93
2022-11-26T16:06:38.938Z,157.35
2022-11-26T16:09:16.163Z,53.40
2022-11-26T16:12:00.836Z,225.38
2022-11-26T16:14:37.420Z,152.93
2022-11-26T16:17:12.014Z,102.78
2022-11-26T16:19:54.998Z,103.32
2022-11-26T16:22:28.310Z,31.65
2022-11-26T16:25:16.336Z,166.32
2022-11-26T16:27:47.723Z,120.60
2022-11-26T16:30:17.820Z,248.55
2022-11-26T16:32:44.545Z,286.50
2022-11-26T16:35:37.417Z,218.95
2022-11-26T16:37:58.514Z,147.38
2022-11-26T16:40:25.901Z,186.70
2022-11-26T16:42:52.637Z,107.28
2022-11-26T16:45:19.845Z,47.83
2022-11-26T16:47:56.365Z,74.05
2022-11-26T16:50:26.696Z,56.92
2022-11-26T16:52:55.125Z,64.95
2022-11-26T16:55:25.583Z,25.40
2022-11-26T16:57:56.786Z,67.85
2022-11-26T17:02:54.002Z,49.55
2022-11-26T17:05:21.435Z,18.88
2022-11-26T17:07:58.862Z,18.67
2022-11-26T17:10:29.261Z,35.33
2022-11-26T17:12:56.965Z,26.30
2022-11-26T17:15:23.930Z,99.55
2022-11-26T17:18:01.347Z,24.05
2022-11-26T17:20:28.099Z,50.88
2022-11-26T17:22:55.092Z,58.28
2022-11-26T17:25:22.047Z,103.82
2022-11-26T17:27:48.982Z,97.22
2022-11-26T17:30:24.205Z,133.68
2022-11-26T17:32:51.658Z,87.25
2022-11-26T17:35:19.211Z,74.32
2022-11-26T17:37:46.657Z,21.52
2022-11-26T17:40:22.936Z,66.07
2022-11-26T17:42:50.077Z,84.13
2022-11-26T17:45:18.325Z,43.33
2022-11-26T17:47:45.562Z,57.67
2022-11-26T17:50:33.390Z,56.55
2022-11-26T17:53:00.104Z,15.95
2022-11-26T17:55:27.452Z,32.22
2022-11-26T17:57:55.275Z,17.10
2022-11-26T18:00:28.260Z,12.27
2022-11-26T18:02:56.126Z,59.17
2022-11-26T18:05:23.790Z,59.00
2022-11-26T18:07:50.983Z,49.22
2022-11-26T18:10:20.857Z,38.90
2022-11-26T18:12:48.845Z,53.88
2022-11-26T18:15:26.925Z,83.40
2022-11-26T18:17:55.286Z,226.65
2022-11-26T18:20:26.983Z,90.43
2022-11-26T18:23:12.484Z,116.03
2022-11-26T18:26:03.318Z,186.60
2022-11-26T18:28:30.083Z,60.65
2022-11-26T18:30:58.585Z,242.77
2022-11-26T18:33:47.272Z,35.63
2022-11-26T18:36:14.172Z,57.97
2022-11-26T18:38:41.112Z,64.28
2022-11-26T18:41:08.308Z,110.07
2022-11-26T18:43:38.635Z,203.98
2022-11-26T18:46:11.105Z,178.25
2022-11-26T18:48:39.398Z,53.75
2022-11-26T18:51:07.025Z,198.60
2022-11-26T18:53:34.303Z,78.47
2022-11-26T18:56:01.854Z,135.10
2022-11-26T18:58:29.939Z,123.43
2022-11-26T19:00:58.573Z,111.80
2022-11-26T19:03:27.296Z,205.63
2022-11-26T19:05:54.691Z,126.43
2022-11-26T19:08:21.841Z,71.55
2022-11-26T19:10:48.742Z,134.48
2022-11-26T19:13:16.101Z,177.80
2022-11-26T19:15:44.946Z,109.85
2022-11-26T19:18:13.682Z,108.93
2022-11-26T19:20:52.828Z,147.35
2022-11-26T19:23:24.266Z,209.32
2022-11-26T19:28:18.282Z,156.27
2022-11-26T19:30:45.043Z,96.18
2022-11-26T19:33:11.805Z,83.63
2022-11-26T19:35:40.091Z,120.85
2022-11-26T19:38:06.861Z,12.88
2022-11-26T19:40:33.664Z,225.80
2022-11-26T19:43:00.398Z,115.97
2022-11-26T19:45:27.137Z,115.40
2022-11-26T19:47:53.976Z,88.30
2022-11-26T19:50:20.712Z,74.72
2022-11-26T19:52:48.175Z,41.70
2022-11-26T19:55:15.044Z,19.15
2022-11-26T19:57:41.778Z,23.17
2022-11-26T20:00:09.649Z,48.17
2022-11-26T20:02:36.598Z,11.02
2022-11-26T20:05:04.420Z,19.77
2022-11-26T20:07:31.197Z,34.20
2022-11-26T20:09:58.041Z,69.32
2022-11-26T20:12:24.782Z,17.13
2022-11-26T20:14:51.519Z,56.15
2022-11-26T20:17:18.361Z,75.13
2022-11-26T20:19:45.849Z,108.97
2022-11-26T20:22:12.570Z,107.53
2022-11-26T20:24:39.356Z,93.22
2022-11-26T20:27:06.187Z,81.45
2022-11-26T20:29:33.012Z,46.47
2022-11-26T20:31:59.805Z,49.95
2022-11-26T20:34:27.710Z,85.68
2022-11-26T20:36:54.524Z,111.38
2022-11-26T20:39:23.448Z,63.33
2022-11-26T20:41:51.090Z,318.75
2022-11-26T20:44:17.854Z,192.75
2022-11-26T20:46:44.663Z,52.80
2022-11-26T20:49:11.673Z,242.02
2022-11-26T20:51:39.067Z,199.23
2022-11-26T20:54:05.909Z,180.35
2022-11-26T20:56:33.200Z,119.00
2022-11-26T20:59:01.462Z,179.57
2022-11-26T21:01:29.847Z,33.88
2022-11-26T21:03:58.020Z,29.98
2022-11-26T21:06:30.432Z,98.82
2022-11-26T21:09:01.091Z,79.50
2022-11-26T21:11:28.882Z,136.25
2022-11-26T21:13:58.071Z,62.25
2022-11-26T21:16:24.846Z,50.17
2022-11-26T21:18:55.226Z,348.63
2022-11-26T21:21:23.951Z,30.30
2022-11-26T21:23:51.376Z,83.60
2022-11-26T21:26:26.260Z,146.70
2022-11-26T21:28:59.420Z,203.85
2022-11-26T21:31:31.229Z,74.60
2022-11-26T21:34:07.192Z,32.65
2022-11-26T21:36:36.106Z,19.92
2022-11-26T21:39:04.280Z,75.53
2022-11-26T21:41:33.364Z,16.65
2022-11-26T21:44:31.638Z,79.05
2022-11-26T21:51:34.889Z,64.05
2022-11-26T21:54:23.402Z,18.88
2022-11-26T21:56:50.530Z,100.47
2022-11-26T21:59:38.493Z,68.63
2022-11-26T22:02:29.046Z,62.20
2022-11-26T22:05:14.554Z,82.18
2022-11-26T22:08:03.143Z,92.70
2022-11-26T22:10:40.053Z,86.00
2022-11-26T22:13:06.806Z,92.65
2022-11-26T22:15:33.538Z,92.97
2022-11-26T22:18:00.253Z,82.38
2022-11-26T22:20:26.999Z,82.07
2022-11-26T22:22:53.726Z,115.35
2022-11-26T22:25:21.363Z,93.43
2022-11-26T22:27:48.077Z,109.83
2022-11-26T22:30:15.252Z,110.47
2022-11-26T22:32:41.994Z,109.10
2022-11-26T22:35:09.870Z,95.67
2022-11-26T22:37:36.583Z,104.87
2022-11-26T22:40:03.882Z,94.57
2022-11-26T22:42:30.634Z,90.97
2022-11-26T22:44:57.381Z,129.27
2022-11-26T22:47:24.102Z,98.67
2022-11-26T22:49:50.850Z,105.43
2022-11-26T22:52:17.612Z,95.33
2022-11-26T22:54:44.382Z,85.70
2022-11-26T22:57:11.137Z,96.40
2022-11-26T22:59:38.200Z,81.77
2022-11-26T23:02:05.168Z,80.73
2022-11-26T23:04:31.905Z,69.00
2022-11-26T23:06:58.642Z,80.20
2022-11-26T23:09:25.445Z,66.40
2022-11-26T23:11:52.221Z,55.07
2022-11-26T23:14:18.942Z,102.57
2022-11-26T23:16:45.725Z,93.23
2022-11-26T23:19:16.911Z,93.07
2022-11-26T23:21:46.550Z,131.85
2022-11-26T23:24:15.189Z,35.90
2022-11-26T23:26:42.429Z,203.33
2022-11-26T23:29:10.216Z,241.77
2022-11-26T23:31:43.587Z,158.10
2022-11-26T23:34:11.330Z,165.97
2022-11-26T23:36:39.258Z,54.17
2022-11-26T23:39:08.694Z,64.97
2022-11-26T23:41:36.304Z,51.50
2022-11-26T23:44:03.589Z,27.80
2022-11-26T23:46:32.630Z,61.80
2022-11-26T23:48:59.495Z,67.27
2022-11-26T23:51:30.143Z,74.43
2022-11-26T23:53:57.126Z,158.88
2022-11-26T23:56:32.673Z,154.73
2022-11-26T23:59:02.815Z,160.37
